Terminal Aerodrome Forecast
Issued by NWS Knoxville/Tri Cities, TN

Home | Current Version | Previous Version | Text Only | Print | Product List | Glossary On
Versions: 1 2 3 4 5 6 7 8 9 10 11 12 13 14 15 16 17 18 19 20
000
FTUS44 KMRX 270803 AAA
TAFCHA
TAF AMD
KCHA 270803Z 2708/2806 VRB03KT 3SM BR SCT060
      TEMPO 2708/2712 1SM BR SCT002 OVC010
     FM271300 33008KT P6SM SCT050
     FM271800 29010KT P6SM SCT060
     FM280100 VRB03KT P6SM BKN060=

USA.gov is the U.S. government's official web portal to all federal, state and local government web resources and services.